Terminal Aerodrome Forecast
Issued by NWS Bismarck, ND

Home | Current Version | Previous Version | Text Only | Print | Product List | Glossary Off
Versions: 1 2 3 4 5 6 7 8 9 10 11 12 13 14 15

064
FTUS43 KBIS 201733
TAFISN
TAF
KISN 201733Z 2018/2118 32005KT P6SM FEW250
     FM210100 34009KT P6SM SCT250
     FM211500 26004KT P6SM FEW250=

USA.gov is the U.S. government's official web portal to all federal, state and local government web resources and services.